Time;durP1;ratioP1;P1;durP2;ratioP2;P2;SDS_P1;SDS_P2;PMS_P1;PMS_P2;Temp;Humidity;BMP_temperature;BMP_pressure;BME280_temperature;BME280_humidity;BME280_pressure;Samples;Min_cycle;Max_cycle;Signal;HPM_P1;HPM_P2
2022/09/30 00:02:19;;;;;;;4.10;1.77;;;;;;;;;;4992245;28;20469;-74
2022/09/30 00:04:46;;;;;;;3.37;2.00;;;;;;;;;;4991625;28;20503;-73
2022/09/30 00:07:13;;;;;;;3.00;1.90;;;;;;;;;;4991815;28;20497;-75
2022/09/30 00:09:41;;;;;;;2.97;1.93;;;;;;;;;;4992275;28;20453;-75
2022/09/30 00:12:09;;;;;;;2.90;2.03;;;;;;;;;;4991267;28;20467;-74
2022/09/30 00:14:36;;;;;;;3.27;2.40;;;;;;;;;;4991380;28;20453;-74
2022/09/30 00:17:03;;;;;;;2.80;1.67;;;;;;;;;;4991182;28;20449;-75
2022/09/30 00:19:30;;;;;;;4.37;2.30;;;;;;;;;;4982471;28;20475;-73
2022/09/30 00:21:57;;;;;;;6.03;2.70;;;;;;;;;;4976497;28;20436;-74
2022/09/30 00:24:24;;;;;;;3.77;2.23;;;;;;;;;;4991340;28;20460;-75
2022/09/30 00:26:53;;;;;;;2.67;1.97;;;;;;;;;;4987967;28;20480;-73
2022/09/30 00:29:20;;;;;;;2.97;2.70;;;;;;;;;;4984155;28;20812;-73
2022/09/30 00:31:47;;;;;;;2.00;1.80;;;;;;;;;;4991569;28;20457;-73
2022/09/30 00:34:16;;;;;;;3.80;2.70;;;;;;;;;;4990598;28;20450;-74
2022/09/30 00:36:44;;;;;;;4.13;2.13;;;;;;;;;;4991447;28;20464;-74
2022/09/30 00:39:12;;;;;;;5.13;2.50;;;;;;;;;;4991188;28;20801;-74
2022/09/30 00:41:39;;;;;;;2.80;2.20;;;;;;;;;;4991506;28;20467;-74
2022/09/30 00:44:25;;;;;;;2.50;1.97;;;;;;;;;;4990553;28;20536;-74
2022/09/30 00:46:55;;;;;;;3.30;2.57;;;;;;;;;;4990693;28;20508;-75
2022/09/30 00:49:25;;;;;;;2.63;2.43;;;;;;;;;;4986458;28;20453;-73
2022/09/30 00:51:54;;;;;;;2.80;2.10;;;;;;;;;;4991037;28;20807;-74
2022/09/30 00:54:23;;;;;;;2.67;2.30;;;;;;;;;;4991201;28;20449;-74
2022/09/30 00:56:51;;;;;;;4.50;2.37;;;;;;;;;;4991037;28;20463;-73
2022/09/30 00:59:19;;;;;;;4.20;2.20;;;;;;;;;;4991213;28;20457;-74
2022/09/30 01:01:46;;;;;;;3.43;2.10;;;;;;;;;;4991245;28;20457;-73
2022/09/30 01:04:16;;;;;;;3.10;2.53;;;;;;;;;;4990923;28;20456;-74
2022/09/30 01:06:43;;;;;;;3.50;2.20;;;;;;;;;;4991321;28;20485;-73
2022/09/30 01:09:11;;;;;;;5.23;2.50;;;;;;;;;;4991233;28;20453;-73
2022/09/30 01:11:38;;;;;;;3.87;1.97;;;;;;;;;;4991539;28;20602;-74
2022/09/30 01:14:08;;;;;;;2.10;1.90;;;12.90;1.00;;;;;;4990173;28;20936;-73
2022/09/30 01:16:50;;;;;;;2.80;2.30;;;9.10;99.90;;;;;;4991581;28;20460;-74
2022/09/30 01:19:44;;;;;;;3.00;2.70;;;9.30;99.90;;;;;;4984403;28;20454;-73
2022/09/30 01:22:32;;;;;;;2.93;1.90;;;9.30;99.90;;;;;;4978253;28;20445;-74
2022/09/30 01:25:35;;;;;;;2.27;2.07;;;9.10;99.90;;;;;;4990893;28;20460;-73
2022/09/30 01:28:43;;;;;;;2.70;1.80;;;9.00;99.90;;;;;;4978846;28;20507;-73
2022/09/30 01:31:21;;;;;;;4.23;2.90;;;9.00;99.90;;;;;;4991271;28;20464;-73
2022/09/30 01:33:59;;;;;;;4.10;2.70;;;9.10;99.90;;;;;;4967618;28;20445;-74
2022/09/30 01:36:38;;;;;;;2.50;2.27;;;9.10;99.90;;;;;;4991673;28;20445;-74
2022/09/30 01:39:17;;;;;;;4.30;2.23;;;9.20;99.90;;;;;;4991073;28;20718;-73
2022/09/30 01:41:51;;;;;;;2.53;2.10;;;9.20;99.90;;;;;;4991609;28;20795;-72
2022/09/30 01:44:24;;;;;;;2.53;2.33;;;;;;;;;;4991328;28;20445;-75
2022/09/30 01:46:56;;;;;;;3.13;2.40;;;;;;;;;;4994646;28;20487;-74
2022/09/30 01:49:28;;;;;;;2.93;2.30;;;;;;;;;;4989531;28;20465;-74
2022/09/30 01:51:58;;;;;;;2.40;1.80;;;;;;;;;;4994246;28;20445;-74
2022/09/30 01:54:28;;;;;;;2.80;2.00;;;;;;;;;;4994653;28;20456;-74
2022/09/30 01:56:56;;;;;;;4.00;2.47;;;;;;;;;;4994103;28;20821;-74
2022/09/30 01:59:26;;;;;;;5.50;2.93;;;;;;;;;;4994756;28;20461;-75
2022/09/30 02:01:56;;;;;;;2.33;1.90;;;;;;;;;;4993589;28;20463;-73
2022/09/30 02:04:25;;;;;;;4.00;2.73;;;;;;;;;;4994121;28;20898;-75
2022/09/30 02:06:54;;;;;;;4.30;2.77;;;;;;;;;;4993584;28;20492;-74
2022/09/30 02:09:25;;;;;;;4.00;2.67;;;;;;;;;;4994258;28;20457;-74
2022/09/30 02:11:54;;;;;;;3.17;2.10;;;;;;;;;;4993351;28;20454;-74
2022/09/30 02:14:24;;;;;;;2.87;2.47;;;;;;;;;;4994060;28;20445;-74
2022/09/30 02:16:54;;;;;;;3.60;2.47;;;;;;;;;;4993558;28;20479;-74
2022/09/30 02:19:25;;;;;;;4.50;2.90;;;;;;;;;;4986611;28;20476;-74
2022/09/30 02:21:53;;;;;;;3.50;2.47;;;;;;;;;;4977615;28;20469;-74
2022/09/30 02:24:24;;;;;;;2.60;1.93;;;;;;;;;;4993831;28;20464;-73
2022/09/30 02:26:55;;;;;;;3.70;2.80;;;;;;;;;;4990549;28;20445;-73
2022/09/30 02:29:23;;;;;;;3.93;2.60;;;;;;;;;;4986403;28;20449;-74
2022/09/30 02:31:53;;;;;;;5.30;2.27;;;;;;;;;;4993277;28;20576;-73
2022/09/30 02:34:21;;;;;;;3.97;2.83;;;;;;;;;;4993904;28;20453;-74
2022/09/30 02:36:52;;;;;;;4.57;2.53;;;;;;;;;;4993604;28;20450;-73
2022/09/30 02:39:23;;;;;;;4.93;3.07;;;;;;;;;;4993820;28;20920;-74
2022/09/30 02:41:52;;;;;;;4.47;2.67;;;;;;;;;;4993710;28;20460;-73
2022/09/30 02:44:21;;;;;;;7.87;2.57;;;;;;;;;;4993351;28;20461;-73
2022/09/30 02:46:54;;;;;;;3.00;2.70;;;;;;;;;;4993174;28;20464;-73
2022/09/30 02:49:23;;;;;;;5.23;2.60;;;;;;;;;;4989149;28;20461;-73
2022/09/30 02:52:01;;;;;;;2.80;2.50;;;;;;;;;;4992915;28;20457;-72
2022/09/30 02:54:31;;;;;;;4.60;2.20;;;;;;;;;;4993118;28;20452;-73
2022/09/30 02:57:00;;;;;;;5.57;2.50;;;;;;;;;;4992420;28;20908;-73
2022/09/30 02:59:27;;;;;;;2.30;2.10;;;;;;;;;;4993407;28;20457;-73
2022/09/30 03:01:55;;;;;;;5.60;2.90;;;;;;;;;;4992993;28;20476;-74
2022/09/30 03:04:23;;;;;;;2.77;2.30;;;;;;;;;;4992763;28;20517;-74
2022/09/30 03:06:50;;;;;;;3.13;2.70;;;;;;;;;;4992497;28;20807;-74
2022/09/30 03:09:19;;;;;;;3.27;2.97;;;;;;;;;;4993446;28;20463;-74
2022/09/30 03:11:47;;;;;;;4.87;3.37;;;;;;;;;;4992799;28;20460;-73
2022/09/30 03:14:21;;;;;;;6.73;2.90;;;;;;;;;;4993247;28;20453;-74
2022/09/30 03:17:00;;;;;;;3.23;2.40;;;;;;;;;;4992646;28;20872;-73
2022/09/30 03:19:38;;;;;;;4.00;2.73;;;;;;;;;;4989547;28;20460;-75
2022/09/30 03:22:10;;;;;;;4.53;2.63;;;;;;;;;;4996530;28;20938;-74
2022/09/30 03:24:44;;;;;;;4.53;2.63;;;;;;;;;;4993141;28;20453;-74
2022/09/30 03:27:16;;;;;;;3.00;2.57;;;;;;;;;;4991131;28;20458;-74
2022/09/30 03:29:47;;;;;;;4.70;3.27;;;;;;;;;;4992411;28;20450;-74
2022/09/30 03:32:20;;;;;;;4.33;3.50;;;;;;;;;;4974863;28;20450;-74
2022/09/30 03:34:56;;;;;;;6.23;2.77;;;;;;;;;;4988901;28;20457;-73
2022/09/30 03:37:28;;;;;;;4.70;3.27;;;;;;;;;;4993061;28;20457;-73
2022/09/30 03:39:58;;;;;;;8.70;3.30;;;;;;;;;;4992576;28;20464;-73
2022/09/30 03:42:27;;;;;;;5.13;3.10;;;;;;;;;;4993182;28;20450;-74
2022/09/30 03:44:58;;;;;;;4.03;3.10;;;;;;;;;;4991174;28;20555;-74
2022/09/30 03:47:28;;;;;;;3.77;3.10;;;;;;;;;;4992500;28;20489;-74
2022/09/30 03:49:58;;;;;;;4.87;3.07;;;;;;;;;;4987486;28;20973;-73
2022/09/30 03:52:26;;;;;;;2.87;2.57;;;;;;;;;;4992734;28;20453;-74
2022/09/30 03:54:55;;;;;;;3.93;2.27;;;;;;;;;;4991663;28;20477;-76
2022/09/30 03:57:23;;;;;;;3.00;2.70;;;;;;;;;;4992551;28;20481;-73
2022/09/30 03:59:50;;;;;;;5.47;3.50;;;;;;;;;;4991548;28;20461;-74
2022/09/30 04:02:18;;;;;;;3.23;2.80;;;;;;;;;;4992576;28;20496;-74
2022/09/30 04:04:45;;;;;;;3.00;2.40;;;;;;;;;;4991890;28;20453;-74
2022/09/30 04:07:13;;;;;;;5.03;2.57;;;;;;;;;;4992065;28;20457;-75
2022/09/30 04:09:40;;;;;;;3.20;2.90;;;;;;;;;;4992044;28;21081;-75
2022/09/30 04:12:07;;;;;;;4.23;3.40;;;;;;;;;;4991190;28;20453;-75
2022/09/30 04:14:37;;;;;;;3.60;2.80;;;;;;;;;;4991784;28;20473;-74
2022/09/30 04:17:05;;;;;;;4.37;2.90;;;;;;;;;;4991347;28;20446;-75
2022/09/30 04:19:36;;;;;;;4.50;3.00;;;;;;;;;;4982686;28;20465;-75
2022/09/30 04:22:04;;;;;;;4.47;2.80;;;;;;;;;;4976656;28;20928;-73
2022/09/30 04:24:31;;;;;;;5.60;2.73;;;;;;;;;;4991656;28;20450;-73
2022/09/30 04:26:58;;;;;;;5.57;3.90;;;;;;;;;;4986936;28;20459;-73
2022/09/30 04:29:25;;;;;;;3.43;3.00;;;;;;;;;;4983832;28;20489;-75
2022/09/30 04:31:54;;;;;;;4.63;2.90;;;;;;;;;;4991211;28;20798;-74
2022/09/30 04:34:21;;;;;;;6.10;3.43;;;;;;;;;;4991653;28;20458;-74
2022/09/30 04:36:48;;;;;;;8.43;3.43;;;;;;;;;;4991293;28;20452;-73
2022/09/30 04:39:15;;;;;;;5.40;4.87;;;;;;;;;;4991723;28;20977;-75
2022/09/30 04:41:42;;;;;;;3.30;2.40;;;;;;;;;;4991880;28;20455;-74
2022/09/30 04:44:09;;;;;;;5.93;3.07;;;;;;;;;;4990274;28;20937;-73
2022/09/30 04:46:37;;;;;;;3.90;3.30;;;;;;;;;;4992035;28;20459;-74
2022/09/30 04:49:06;;;;;;;4.30;3.90;;;;;;;;;;4985337;28;20481;-74
2022/09/30 04:51:34;;;;;;;4.00;2.80;;;;;;;;;;4991966;28;20476;-74
2022/09/30 04:54:02;;;;;;;3.90;3.00;;;;;;;;;;4990562;28;20870;-74
2022/09/30 04:56:29;;;;;;;4.17;2.70;;;;;;;;;;4991491;28;20960;-74
2022/09/30 04:58:56;;;;;;;5.13;3.43;;;;;;;;;;4990623;28;20460;-74
2022/09/30 05:01:23;;;;;;;4.37;3.10;;;;;;;;;;4991282;28;20458;-74
2022/09/30 05:03:50;;;;;;;8.90;3.90;;;;;;;;;;4990025;28;20445;-73
2022/09/30 05:06:19;;;;;;;5.73;3.73;;;;;;;;;;4991629;28;20457;-74
2022/09/30 05:08:46;;;;;;;5.57;4.00;;;;;;;;;;4991151;28;21019;-73
2022/09/30 05:11:16;;;;;;;3.87;2.90;;;;;;;;;;4991583;28;20453;-74
2022/09/30 05:13:43;;;;;;;5.83;3.30;;;;;;;;;;4990677;28;20544;-74
2022/09/30 05:16:11;;;;;;;3.37;3.03;;;;;;;;;;4990817;28;20460;-74
2022/09/30 05:18:39;;;;;;;5.97;4.20;;;;;;;;;;4989296;28;20465;-74
2022/09/30 05:21:07;;;;;;;5.33;3.70;;;;;;;;;;4974996;28;20489;-74
2022/09/30 05:23:35;;;;;;;3.70;2.87;;;;;;;;;;4992571;28;20452;-74
2022/09/30 05:26:03;;;;;;;5.83;3.40;;;;;;;;;;4994380;28;20968;-75
2022/09/30 05:28:31;;;;;;;3.80;2.73;;;;;;;;;;4983303;28;20981;-74
2022/09/30 05:30:59;;;;;;;4.03;3.30;;;;;;;;;;4994515;28;20447;-74
2022/09/30 05:33:27;;;;;;;5.30;3.50;;;;;;;;;;4994923;28;20494;-74
2022/09/30 05:35:54;;;;;;;5.43;3.87;;;;;;;;;;4994601;28;20575;-74
2022/09/30 05:38:22;;;;;;;4.67;3.37;;;;;;;;;;4995456;28;20456;-74
2022/09/30 05:40:50;;;;;;;5.17;4.00;;;;;;;;;;4994930;28;20460;-73
2022/09/30 05:43:17;;;;;;;3.83;3.03;;;;;;;;;;4994845;28;20806;-74
2022/09/30 05:45:52;;;;;;;4.30;3.50;;;;;;;;;;4995406;28;20461;-74
2022/09/30 05:48:19;;;;;;;4.80;3.40;;;;;;;;;;4995141;28;20965;-74
2022/09/30 05:50:49;;;;;;;10.63;3.50;;;;;;;;;;4989397;28;20553;-73
2022/09/30 05:53:18;;;;;;;4.80;3.57;;;;;;;;;;4995091;28;20443;-74
2022/09/30 05:55:46;;;;;;;6.47;4.77;;;;;;;;;;4995131;28;20479;-73
2022/09/30 05:58:15;;;;;;;5.30;3.83;;;;;;;;;;4994694;28;21005;-74
2022/09/30 06:00:42;;;;;;;4.93;3.07;;;;;;;;;;4994693;28;20463;-75
2022/09/30 06:03:09;;;;;;;6.00;4.57;;;;;;;;;;4994187;28;20804;-73
2022/09/30 06:05:37;;;;;;;5.33;3.40;;;;;;;;;;4994930;28;20816;-75
2022/09/30 06:08:05;;;;;;;5.27;3.77;;;;;;;;;;4994150;28;20821;-73
2022/09/30 06:10:33;;;;;;;7.40;3.73;;;;;;;;;;4994046;28;20455;-73
2022/09/30 06:13:01;;;;;;;9.90;3.60;;;;;;;;;;4993524;28;20518;-73
2022/09/30 06:15:29;;;;;;;5.10;3.90;;;;;;;;;;4994168;28;20456;-73
2022/09/30 06:17:57;;;;;;;6.33;3.73;;;;;;;;;;4993658;28;20457;-72
2022/09/30 06:20:24;;;;;;;4.40;3.80;;;;;;;;;;4977760;28;20488;-72
2022/09/30 06:22:51;;;;;;;6.00;3.73;;;;;;;;;;4985192;28;20457;-73
2022/09/30 06:25:18;;;;;;;6.60;4.10;;;;;;;;;;4994058;28;20468;-73
2022/09/30 06:27:46;;;;;;;7.77;4.27;;;;;;;;;;4983443;28;20463;-72
2022/09/30 06:30:13;;;;;;;3.80;3.37;;;;;;;;;;4992169;28;20491;-75
2022/09/30 06:32:42;;;;;;;5.83;4.07;;;;;;;;;;4992922;28;20458;-74
2022/09/30 06:35:10;;;;;;;7.10;3.90;;;;;;;;;;4993571;28;21203;-75
2022/09/30 06:37:37;;;;;;;6.57;4.03;;;;;;;;;;4993806;28;20940;-75
2022/09/30 06:40:06;;;;;;;6.03;4.63;;;;;;;;;;4968055;28;20625;-75
2022/09/30 06:42:34;;;;;;;6.00;4.03;;;;;;;;;;4993843;28;20485;-74
2022/09/30 06:45:01;;;;;;;8.90;4.67;;;;;;;;;;4992523;28;20488;-74
2022/09/30 06:47:28;;;;;;;5.50;3.93;;;;;;;;;;4993815;28;20456;-74
2022/09/30 06:49:57;;;;;;;7.57;4.77;;;;;;;;;;4988286;28;20498;-74
2022/09/30 06:52:26;;;;;;;4.27;3.53;;;;;;;;;;4993638;28;20455;-74
2022/09/30 06:54:55;;;;;;;5.63;4.73;;;;;;;;;;4992789;28;20461;-74
2022/09/30 06:57:23;;;;;;;7.10;5.40;;;;;;;;;;4993525;28;20453;-74
2022/09/30 06:59:51;;;;;;;7.30;4.70;;;;;;;;;;4992737;28;20489;-74
2022/09/30 07:02:18;;;;;;;5.77;4.60;;;;;;;;;;4993256;28;20462;-74
2022/09/30 07:04:45;;;;;;;4.83;4.23;;;;;;;;;;4993140;28;20778;-74
2022/09/30 07:07:14;;;;;;;5.03;4.40;;;;;;;;;;4992863;28;20510;-74
2022/09/30 07:09:42;;;;;;;4.30;3.93;;;;;;;;;;4993225;28;20490;-75
2022/09/30 07:12:09;;;;;;;10.90;5.43;;;;;;;;;;4981063;28;20445;-75
2022/09/30 07:14:36;;;;;;;5.93;5.40;;;;;;;;;;4994209;28;20917;-75
2022/09/30 07:17:04;;;;;;;5.87;5.27;;;;;;;;;;4992830;28;20451;-75
2022/09/30 07:19:32;;;;;;;7.03;5.00;;;;;;;;;;4984884;28;20486;-75
2022/09/30 07:22:26;;;;;;;5.87;4.30;;;;;;;;;;4980108;28;20488;-74
2022/09/30 07:24:49;;;;;;;6.20;5.13;;;;;;;;;;4997048;28;20479;-73
2022/09/30 07:27:17;;;;;;;9.10;4.20;;;;;;;;;;4992476;28;20477;-75
2022/09/30 07:29:45;;;;;;;8.37;5.47;;;;;;;;;;4992613;28;20495;-75
2022/09/30 07:32:12;;;;;;;6.90;4.50;;;;;;;;;;4995657;28;20530;-75
2022/09/30 07:34:42;;;;;;;6.20;4.90;;;;;;;;;;4992850;28;20623;-75
2022/09/30 07:37:13;;;;;;;5.93;4.93;;;;;;;;;;4992698;28;20539;-75
2022/09/30 07:39:40;;;;;;;5.80;5.00;;;;;;;;;;4992897;28;21243;-75
2022/09/30 07:42:09;;;;;;;7.50;6.20;;;;;;;;;;4991761;28;20503;-75
2022/09/30 07:44:43;;;;;;;8.80;5.20;;;;;;;;;;4992010;28;20797;-75
2022/09/30 07:47:10;;;;;;;8.13;5.10;;;;;;;;;;4991963;28;20453;-75
2022/09/30 07:49:38;;;;;;;6.60;5.80;;;;;;;;;;4987215;28;20503;-75
2022/09/30 07:52:05;;;;;;;7.20;5.90;;;;;;;;;;4991549;28;20572;-75
2022/09/30 07:54:33;;;;;;;7.20;4.77;;;;;;;;;;4992041;28;20548;-75
2022/09/30 07:57:01;;;;;;;7.30;5.07;;;;;;;;;;4991740;28;20459;-75
2022/09/30 07:59:30;;;;;;;7.63;5.70;;;;;;;;;;4992103;28;20457;-75
2022/09/30 08:01:57;;;;;;;12.23;5.63;;;;;;;;;;4991536;28;20540;-74
2022/09/30 08:04:25;;;;;;;8.83;5.77;;;;;;;;;;4965835;28;20449;-74
2022/09/30 08:06:53;;;;;;;6.60;5.40;;;;;;;;;;4991239;28;20936;-74
2022/09/30 08:09:21;;;;;;;8.43;6.60;;;;;;;;;;4992415;28;20492;-74
2022/09/30 08:11:49;;;;;;;10.97;6.83;;;;;;;;;;4991677;28;20449;-74
2022/09/30 08:14:17;;;;;;;9.70;6.90;;;;;;;;;;4991764;28;20453;-74
2022/09/30 08:16:45;;;;;;;8.60;5.90;;;;;;;;;;4992127;28;20476;-74
2022/09/30 08:19:15;;;;;;;8.50;5.17;;;;;;;;;;4984828;28;20987;-75
2022/09/30 08:21:42;;;;;;;9.30;6.20;;;;;;;;;;4974806;28;20470;-75
2022/09/30 08:24:09;;;;;;;8.50;5.97;;;;;;;;;;4990666;28;20971;-74
2022/09/30 08:26:36;;;;;;;6.73;5.20;;;;;;;;;;4990653;28;20460;-75
2022/09/30 08:29:03;;;;;;;8.83;6.70;;;;;;;;;;4980904;28;20499;-74
2022/09/30 08:31:32;;;;;;;14.33;6.27;;;;;;;;;;4991220;28;20461;-74
2022/09/30 08:34:02;;;;;;;10.23;6.03;;;;;;;;;;4990200;28;20458;-74
2022/09/30 08:36:29;;;;;;;9.83;6.97;;;;;;;;;;4991389;28;20476;-74
2022/09/30 08:38:56;;;;;;;6.90;5.40;;;;;;;;;;4990737;28;21113;-74
2022/09/30 08:41:42;;;;;;;9.90;6.30;;;;;;;;;;4991035;28;20456;-74
2022/09/30 08:44:17;;;;;;;13.03;6.50;;;;;;;;;;4990754;28;20499;-74
2022/09/30 08:46:48;;;;;;;10.33;7.50;;;;;;;;;;4992088;28;20454;-74
2022/09/30 08:49:23;;;;;;;12.60;7.27;;;;;;;;;;4986757;28;20504;-74
2022/09/30 08:51:51;;;;;;;10.20;7.40;;;;;;;;;;4991597;28;20517;-74
2022/09/30 08:54:20;;;;;;;9.30;7.27;;;;;;;;;;4991023;28;20813;-74
2022/09/30 08:56:47;;;;;;;9.70;7.60;;;;;;;;;;4991536;28;20456;-74
2022/09/30 08:59:28;;;;;;;10.80;7.80;;;;;;;;;;4991130;28;20453;-74
2022/09/30 09:01:59;;;;;;;9.50;6.17;;;;;;;;;;4990816;28;20455;-74
2022/09/30 09:04:27;;;;;;;9.10;6.30;;;;;;;;;;4991012;28;20456;-74
2022/09/30 09:06:57;;;;;;;7.63;6.03;;;;;;;;;;4990358;28;20824;-75
2022/09/30 09:09:31;;;;;;;13.33;7.43;;;;;;;;;;4991172;28;20485;-74
2022/09/30 09:12:06;;;;;;;11.60;6.77;;;;;;;;;;4990895;28;20886;-74
2022/09/30 09:14:39;;;;;;;12.20;6.73;;;;;;;;;;4981622;28;20484;-74
2022/09/30 09:17:13;;;;;;;9.83;6.73;;;;;;;;;;4988140;28;20477;-74
2022/09/30 09:19:43;;;;;;;8.30;6.40;;;;;;;;;;4980791;28;20488;-74
2022/09/30 09:22:11;;;;;;;10.20;6.83;;;;;;;;;;4977094;28;20445;-74
2022/09/30 09:24:40;;;;;;;8.80;6.60;;;;;;;;;;4990785;28;20456;-74
2022/09/30 09:27:17;;;;;;;11.10;8.30;;;;;;;;;;4959898;28;20654;-75
2022/09/30 09:29:50;;;;;;;10.13;6.80;;;;;;;;;;4986060;28;20485;-74
2022/09/30 09:32:17;;;;;;;10.33;6.53;;;;;;;;;;4991061;28;20441;-74
2022/09/30 09:34:51;;;;;;;8.87;6.93;;;;;;;;;;4990741;28;20461;-74
2022/09/30 09:37:21;;;;;;;7.33;6.53;;;;;;;;;;4991446;28;20976;-75
2022/09/30 09:39:54;;;;;;;11.13;8.50;;;;;;;;;;4990830;28;20463;-73
2022/09/30 09:42:28;;;;;;;7.20;6.30;;;;;;;;;;4991340;28;20801;-74
2022/09/30 09:44:59;;;;;;;7.30;6.50;;;;;;;;;;4990380;28;20452;-74
2022/09/30 09:47:26;;;;;;;11.17;7.33;;;;;;;;;;4991122;28;20453;-75
2022/09/30 09:49:56;;;;;;;7.20;5.20;;;;;;;;;;4985267;28;20492;-73
2022/09/30 09:52:30;;;;;;;7.90;6.30;;;;;;;;;;4991448;28;20444;-74
2022/09/30 09:54:59;;;;;;;8.97;6.40;;;;;;;;;;4991327;28;20433;-73
2022/09/30 09:57:31;;;;;;;7.63;6.00;;;;;;;;;;4991260;28;20446;-74
2022/09/30 09:59:58;;;;;;;7.03;6.13;;;;;;;;;;4990798;28;20445;-74
2022/09/30 10:02:26;;;;;;;11.67;6.10;;;;;;;;;;4990787;28;20449;-74
2022/09/30 10:05:00;;;;;;;9.60;6.37;;;;;;;;;;4990747;28;20933;-74
2022/09/30 10:07:28;;;;;;;8.57;5.53;;;;;;;;;;4993674;28;20445;-74
2022/09/30 10:10:08;;;;;;;7.97;5.80;;;;;;;;;;4994396;28;20492;-75
2022/09/30 10:12:35;;;;;;;13.17;6.43;;;;;;;;;;4994286;28;20456;-74
2022/09/30 10:15:04;;;;;;;8.53;6.00;;;;;;;;;;4993696;28;20537;-74
2022/09/30 10:17:32;;;;;;;9.50;6.53;;;;;;;;;;4994547;28;20460;-74
2022/09/30 10:20:03;;;;;;;7.80;5.20;;;;;;;;;;4980552;28;20477;-74
2022/09/30 10:22:31;;;;;;;6.23;5.37;;;;;;;;;;4983202;28;20509;-74
2022/09/30 10:25:17;;;;;;;5.73;4.60;;;;;;;;;;4994015;28;20450;-74
2022/09/30 10:27:48;;;;;;;7.20;4.83;;;;;;;;;;4984312;28;20863;-74
2022/09/30 10:30:30;;;;;;;10.17;6.00;;;;;;;;;;4993256;28;20806;-74
2022/09/30 10:32:57;;;;;;;10.30;5.50;;;;;;;;;;4992987;28;20460;-74
2022/09/30 10:35:26;;;;;;;7.73;5.17;;;;;;;;;;4994239;28;20548;-74
2022/09/30 10:37:53;;;;;;;6.13;5.00;;;;;;;;;;4993220;28;20461;-74
2022/09/30 10:40:26;;;;;;;7.10;5.07;;;;;;;;;;4993808;28;20959;-74
2022/09/30 10:42:53;;;;;;;7.00;4.13;;;;;;;;;;4992845;28;20800;-74
2022/09/30 10:45:22;;;;;;;6.07;3.80;;;;;;;;;;4993930;28;20454;-75
2022/09/30 10:47:50;;;;;;;5.50;4.10;;;;;;;;;;4993296;28;20531;-73
2022/09/30 10:50:20;;;;;;;5.47;3.83;;;;;;;;;;4988814;28;20496;-74
2022/09/30 10:52:51;;;;;;;4.83;3.60;;;;;;;;;;4992813;28;20453;-73
2022/09/30 10:55:28;;;;;;;4.70;3.20;;;;;;;;;;4982760;28;20529;-74
2022/09/30 10:57:55;;;;;;;3.80;3.03;;;;;;;;;;4992554;28;20843;-74
2022/09/30 11:00:24;;;;;;;3.40;2.57;;;;;;;;;;4993496;28;20452;-74
2022/09/30 11:02:55;;;;;;;3.83;3.23;;;;;;;;;;4966608;28;20540;-74
2022/09/30 11:05:23;;;;;;;3.30;3.00;;;;;;;;;;4993600;28;20457;-74
2022/09/30 11:07:54;;;;;;;3.40;3.10;;;;;;;;;;4992874;28;20512;-74
2022/09/30 11:10:32;;;;;;;5.90;3.07;;;;;;;;;;4993312;28;20485;-74
2022/09/30 11:13:05;;;;;;;6.50;2.83;;;;;;;;;;4992558;28;20445;-74
2022/09/30 11:15:34;;;;;;;5.30;2.27;;;;;;;;;;4994243;28;20449;-74
2022/09/30 11:18:05;;;;;;;5.53;1.90;;;;;;;;;;4994183;28;20454;-74
2022/09/30 11:20:35;;;;;;;5.30;2.50;;;;;;;;;;4980642;28;20474;-75
2022/09/30 11:23:06;;;;;;;4.40;2.27;;;;;;;;;;4994150;28;20453;-74
2022/09/30 11:25:38;;;;;;;3.20;1.97;;;;;;;;;;4971933;28;20857;-74
2022/09/30 11:28:14;;;;;;;2.73;1.90;;;;;;;;;;4991933;28;20608;-76
2022/09/30 11:30:46;;;;;;;2.90;2.60;;;;;;;;;;5005887;28;20485;-76
2022/09/30 11:33:18;;;;;;;3.17;2.40;;;;;;;;;;4999552;28;20469;-76
2022/09/30 11:35:52;;;;;;;2.73;1.90;;;;;;;;;;4993206;28;20456;-75
2022/09/30 11:38:31;;;;;;;3.17;2.00;;;;;;;;;;4993314;28;20563;-75
2022/09/30 11:41:02;;;;;;;2.60;2.40;;;;;;;;;;4992337;28;20454;-75
2022/09/30 11:43:36;;;;;;;2.63;2.30;;;;;;;;;;4992622;28;20807;-75
2022/09/30 11:46:13;;;;;;;11.03;3.60;;;;;;;;;;4992022;28;20449;-76
2022/09/30 11:48:46;;;;;;;4.13;2.97;;;;;;;;;;4990861;28;20449;-76
2022/09/30 11:51:17;;;;;;;3.27;2.80;;;;;;;;;;4990295;28;20529;-75
2022/09/30 11:53:52;;;;;;;4.73;2.40;;;;;;;;;;4992690;28;20889;-75
2022/09/30 11:56:26;;;;;;;3.40;2.73;;;;;;;;;;4992692;28;20445;-75
2022/09/30 11:58:55;;;;;;;7.57;3.00;;;;;;;;;;4991756;28;20460;-75
2022/09/30 12:01:25;;;;;;;4.83;2.40;;;;;;;;;;4992251;28;20461;-75
2022/09/30 12:03:56;;;;;;;3.80;2.10;;;;;;;;;;4990887;28;20526;-76
2022/09/30 12:06:26;;;;;;;1.80;1.70;;;;;;;;;;4992216;28;20454;-75
2022/09/30 12:08:58;;;;;;;3.10;2.43;;;;;;;;;;4991389;28;20450;-75
2022/09/30 12:11:30;;;;;;;3.40;2.83;;;;;;;;;;4992412;28;20492;-75
2022/09/30 12:14:00;;;;;;;2.83;1.80;;;;;;;;;;4991558;28;20468;-76
2022/09/30 12:16:29;;;;;;;1.90;1.70;;;;;;;;;;4992446;28;20800;-73
2022/09/30 12:18:58;;;;;;;3.23;1.97;;;;;;;;;;4987170;28;20450;-75
2022/09/30 12:21:29;;;;;;;3.20;2.33;;;;;;;;;;4973178;28;20495;-75
2022/09/30 12:24:01;;;;;;;2.57;1.90;;;;;;;;;;4967122;28;20453;-76
2022/09/30 12:26:28;;;;;;;1.93;1.83;;;;;;;;;;4992341;28;20476;-75
2022/09/30 12:31:52;;;;;;;1.87;1.70;;;;;;;;;;4992033;28;20506;-76
2022/09/30 12:34:25;;;;;;;1.60;1.50;;;;;;;;;;4992293;28;20456;-73
2022/09/30 12:37:01;;;;;;;1.97;1.40;;;;;;;;;;4967228;28;20500;-73
2022/09/30 12:39:47;;;;;;;2.87;1.30;;;;;;;;;;4992458;28;20504;-74
2022/09/30 12:42:22;;;;;;;1.90;1.60;;;;;;;;;;4991883;28;20455;-74
2022/09/30 12:45:13;;;;;;;2.37;1.83;;;;;;;;;;4991723;28;20449;-74
2022/09/30 12:47:44;;;;;;;2.40;1.60;;;;;;;;;;4991821;28;21119;-74
2022/09/30 12:50:14;;;;;;;1.47;1.10;;;;;;;;;;4987454;28;20862;-75
2022/09/30 12:52:41;;;;;;;2.00;1.50;;;;;;;;;;4991806;28;20858;-75
2022/09/30 12:55:09;;;;;;;5.70;2.40;;;;;;;;;;4991361;28;20449;-75
2022/09/30 12:57:41;;;;;;;2.10;1.40;;;;;;;;;;4991855;28;20508;-74
2022/09/30 13:00:15;;;;;;;3.70;1.33;;;;;;;;;;4990403;28;20437;-74
2022/09/30 13:02:43;;;;;;;2.83;1.50;;;;;;;;;;4991249;28;20453;-73
2022/09/30 13:05:29;;;;;;;1.90;1.50;;;;;;;;;;4991094;28;20465;-74
2022/09/30 13:08:10;;;;;;;2.03;1.47;;;;;;;;;;4990662;28;20457;-74
2022/09/30 13:10:45;;;;;;;1.83;1.10;;;;;;;;;;4991321;28;20555;-73
2022/09/30 13:13:22;;;;;;;4.20;1.33;;;;;;;;;;4991069;28;20575;-73
2022/09/30 13:15:50;;;;;;;1.13;0.80;;;;;;;;;;4990987;28;20453;-73
2022/09/30 13:18:36;;;;;;;1.97;1.33;;;;;;;;;;4991603;28;20817;-73
2022/09/30 13:21:17;;;;;;;1.57;1.10;;;;;;;;;;4961939;28;20482;-76
2022/09/30 13:23:47;;;;;;;1.87;1.20;;;;;;;;;;4989915;28;20449;-74
2022/09/30 13:26:30;;;;;;;1.40;1.10;;;;;;;;;;4979219;28;20461;-74
2022/09/30 13:29:22;;;;;;;1.70;1.37;;;;;;;;;;4979517;28;20529;-75
2022/09/30 13:32:03;;;;;;;1.07;0.67;;;;;;;;;;4990290;28;20515;-73
2022/09/30 13:34:31;;;;;;;0.90;0.80;;;;;;;;;;4991123;28;20461;-74
2022/09/30 13:37:00;;;;;;;1.73;1.10;;;;;;;;;;4990954;28;20448;-74
2022/09/30 13:39:28;;;;;;;1.60;1.00;;;;;;;;;;4991182;28;20963;-75
2022/09/30 13:42:12;;;;;;;1.60;1.00;;;;;;;;;;4994138;28;20468;-74
2022/09/30 13:44:53;;;;;;;2.50;1.30;;;;;;;;;;4995205;28;20453;-75
2022/09/30 13:47:24;;;;;;;3.03;0.97;;;;;;;;;;4994845;28;20925;-74
2022/09/30 13:49:55;;;;;;;1.33;1.07;;;;;;;;;;4988916;28;20457;-74
2022/09/30 13:52:26;;;;;;;2.20;1.10;;;;;;;;;;4994613;28;20476;-74
2022/09/30 13:54:57;;;;;;;2.37;1.10;;;;;;;;;;4994244;28;20433;-73
2022/09/30 13:57:26;;;;;;;4.13;1.60;;;;;;;;;;4994955;28;20456;-73
2022/09/30 14:00:01;;;;;;;1.00;0.90;;;;;;;;;;4994336;28;20449;-76
2022/09/30 14:02:35;;;;;;;1.27;0.80;;;;;;;;;;4994327;28;20943;-75
2022/09/30 14:05:23;;;;;;;0.90;0.80;;;;;;;;;;4994274;28;20438;-75
2022/09/30 14:07:59;;;;;;;1.53;1.00;;;;;;;;;;4969179;28;20449;-73
2022/09/30 14:10:41;;;;;;;1.53;1.07;;;;;;;;;;4994249;28;20925;-74
2022/09/30 14:13:14;;;;;;;1.53;0.97;;;;;;;;;;4983101;28;20582;-74
2022/09/30 14:15:54;;;;;;;3.97;1.90;;;;;;;;;;4980025;28;20446;-74
2022/09/30 14:18:39;;;;;;;3.87;2.00;;;;;;;;;;4994434;28;20622;-74
2022/09/30 14:21:13;;;;;;;3.63;1.93;;;;;;;;;;4955923;28;20577;-74
2022/09/30 14:23:41;;;;;;;5.77;2.20;;;;;;;;;;4991565;28;20618;-74
2022/09/30 14:26:14;;;;;;;2.30;1.00;;;;;;;;;;4993071;28;20786;-74
2022/09/30 14:28:44;;;;;;;1.37;0.80;;;;;;;;;;4981627;28;20859;-74
2022/09/30 14:31:14;;;;;;;1.77;1.40;;;;;;;;;;4984801;28;20482;-74
2022/09/30 14:33:42;;;;;;;1.93;1.10;;;;;;;;;;4971243;28;20493;-73
2022/09/30 14:36:13;;;;;;;1.40;0.90;;;;;;;;;;4985773;28;20457;-75
2022/09/30 14:38:43;;;;;;;2.53;1.53;;;;;;;;;;4982551;28;20508;-74
2022/09/30 14:41:16;;;;;;;1.50;1.30;;;;;;;;;;4991423;28;20868;-74
2022/09/30 14:43:45;;;;;;;1.63;1.13;;;;;;;;;;4993228;28;20952;-74
2022/09/30 14:46:23;;;;;;;1.20;1.10;;;;;;;;;;4993002;28;20464;-74
2022/09/30 14:48:51;;;;;;;1.20;1.00;;;;;;;;;;4989768;28;20446;-73
2022/09/30 14:51:19;;;;;;;1.37;1.10;;;;;;;;;;4992584;28;20571;-75
2022/09/30 14:53:53;;;;;;;1.30;1.20;;;;;;;;;;4992722;28;20445;-74
2022/09/30 14:56:22;;;;;;;1.10;1.00;;;;;;;;;;4993895;28;20453;-74
2022/09/30 14:58:51;;;;;;;2.07;1.20;;;;;;;;;;4992768;28;20979;-74
2022/09/30 15:01:21;;;;;;;1.10;0.97;;;;;;;;;;4993212;28;20454;-74
2022/09/30 15:03:52;;;;;;;1.20;1.00;;;;;;;;;;4992953;28;20453;-73